createdAt,value
2022-11-24T00:02:52.332Z,100.00
2022-11-24T00:05:54.917Z,100.00
2022-11-24T00:08:57.244Z,100.00
2022-11-24T00:12:01.289Z,100.00
2022-11-24T00:15:03.713Z,100.00
2022-11-24T00:18:05.984Z,100.00
2022-11-24T00:21:07.932Z,100.00
2022-11-24T00:24:10.157Z,100.00
2022-11-24T00:27:12.071Z,100.00
2022-11-24T00:30:14.275Z,100.00
2022-11-24T00:33:16.189Z,100.00
2022-11-24T00:36:19.251Z,100.00
2022-11-24T00:39:21.183Z,100.00
2022-11-24T00:42:23.385Z,100.00
2022-11-24T00:45:25.269Z,100.00
2022-11-24T00:48:27.441Z,100.00
2022-11-24T00:51:30.354Z,100.00
2022-11-24T00:54:32.838Z,100.00
2022-11-24T00:57:35.233Z,100.00
2022-11-24T01:00:37.440Z,100.00
2022-11-24T01:03:39.619Z,100.00
2022-11-24T01:06:41.842Z,100.00
2022-11-24T01:09:45.525Z,100.00
2022-11-24T01:12:47.841Z,100.00
2022-11-24T01:15:49.761Z,100.00
2022-11-24T01:18:52.390Z,100.00
2022-11-24T01:21:54.366Z,100.00
2022-11-24T01:24:56.506Z,100.00
2022-11-24T01:27:58.392Z,100.00
2022-11-24T01:31:01.432Z,100.00
2022-11-24T01:34:03.441Z,100.00
2022-11-24T01:37:05.631Z,100.00
2022-11-24T01:40:08.073Z,100.00
2022-11-24T01:43:18.061Z,100.00
2022-11-24T01:46:26.589Z,100.00
2022-11-24T01:49:36.931Z,100.00
2022-11-24T01:52:41.938Z,100.00
2022-11-24T01:55:44.123Z,100.00
2022-11-24T01:58:47.406Z,100.00
2022-11-24T02:01:51.444Z,100.00
2022-11-24T02:04:54.387Z,100.00
2022-11-24T02:08:00.265Z,100.00
2022-11-24T02:11:04.222Z,100.00
2022-11-24T02:14:07.842Z,100.00
2022-11-24T02:17:09.758Z,100.00
2022-11-24T02:20:13.248Z,100.00
2022-11-24T02:23:20.410Z,100.00
2022-11-24T02:26:41.164Z,100.00
2022-11-24T02:29:43.153Z,100.00
2022-11-24T02:32:45.426Z,100.00
2022-11-24T02:35:47.341Z,100.00
2022-11-24T02:38:49.507Z,100.00
2022-11-24T02:41:53.701Z,100.00
2022-11-24T02:44:58.196Z,100.00
2022-11-24T02:48:00.126Z,100.00
2022-11-24T02:51:02.425Z,100.00
2022-11-24T02:54:04.293Z,100.00
2022-11-24T02:57:06.523Z,100.00
2022-11-24T03:00:08.840Z,100.00
2022-11-24T03:03:11.215Z,100.00
2022-11-24T03:06:13.227Z,100.00
2022-11-24T03:09:15.407Z,100.00
2022-11-24T03:12:17.344Z,100.00
2022-11-24T03:15:19.893Z,100.00
2022-11-24T03:18:21.790Z,100.00
2022-11-24T03:21:23.951Z,100.00
2022-11-24T03:24:25.854Z,100.00
2022-11-24T03:27:28.154Z,100.00
2022-11-24T03:30:30.352Z,100.00
2022-11-24T03:33:32.656Z,100.00
2022-11-24T03:36:34.633Z,100.00
2022-11-24T03:39:36.770Z,100.00
2022-11-24T03:42:39.785Z,100.00
2022-11-24T03:45:46.307Z,100.00
2022-11-24T03:48:48.625Z,100.00
2022-11-24T03:51:50.855Z,100.00
2022-11-24T03:54:53.295Z,100.00
2022-11-24T03:57:55.492Z,100.00
2022-11-24T04:00:57.547Z,100.00
2022-11-24T04:03:59.720Z,100.00
2022-11-24T04:07:01.594Z,100.00
2022-11-24T04:10:04.060Z,100.00
2022-11-24T04:13:11.321Z,100.00
2022-11-24T04:16:13.507Z,100.00
2022-11-24T04:19:15.470Z,100.00
2022-11-24T04:22:17.636Z,100.00
2022-11-24T04:25:19.569Z,100.00
2022-11-24T04:28:21.778Z,100.00
2022-11-24T04:31:23.709Z,100.00
2022-11-24T04:34:25.915Z,100.00
2022-11-24T04:37:28.087Z,100.00
2022-11-24T04:40:30.513Z,100.00
2022-11-24T04:43:35.220Z,100.00
2022-11-24T04:46:41.592Z,100.00
2022-11-24T04:49:43.532Z,100.00
2022-11-24T04:52:45.915Z,100.00
2022-11-24T04:55:47.847Z,100.00
2022-11-24T04:58:50.043Z,100.00
2022-11-24T05:01:52.056Z,100.00
2022-11-24T05:04:54.408Z,100.00
2022-11-24T05:07:58.305Z,100.00
2022-11-24T05:11:08.186Z,100.00
2022-11-24T05:14:10.153Z,100.00
2022-11-24T05:17:12.311Z,100.00
2022-11-24T05:20:14.321Z,100.00
2022-11-24T05:23:18.843Z,100.00
2022-11-24T05:29:22.452Z,100.00
2022-11-24T05:32:24.506Z,100.00
2022-11-24T05:35:26.745Z,100.00
2022-11-24T05:38:29.934Z,100.00
2022-11-24T05:41:32.149Z,100.00
2022-11-24T05:44:34.411Z,100.00
2022-11-24T05:47:37.476Z,100.00
2022-11-24T05:50:39.788Z,100.00
2022-11-24T05:53:42.392Z,100.00
2022-11-24T05:56:44.323Z,100.00
2022-11-24T05:59:46.500Z,100.00
2022-11-24T06:02:48.606Z,100.00
2022-11-24T06:05:50.970Z,100.00
2022-11-24T06:08:52.840Z,100.00
2022-11-24T06:11:55.056Z,100.00
2022-11-24T06:14:56.957Z,100.00
2022-11-24T06:17:59.165Z,100.00
2022-11-24T06:21:10.658Z,98.76
2022-11-24T06:24:14.699Z,100.00
2022-11-24T06:27:16.869Z,100.00
2022-11-24T06:30:19.049Z,98.77
2022-11-24T06:33:21.038Z,97.15
2022-11-24T06:36:23.254Z,97.23
2022-11-24T06:39:25.258Z,96.97
2022-11-24T06:42:27.500Z,96.79
2022-11-24T06:45:29.448Z,98.64
2022-11-24T06:48:31.976Z,97.59
2022-11-24T06:51:33.893Z,96.35
2022-11-24T06:54:36.380Z,96.79
2022-11-24T06:57:38.725Z,97.70
2022-11-24T07:00:41.092Z,96.76
2022-11-24T07:03:43.876Z,96.08
2022-11-24T07:06:46.303Z,96.00
2022-11-24T07:09:48.394Z,96.99
2022-11-24T07:12:50.633Z,94.81
2022-11-24T07:15:52.590Z,95.74
2022-11-24T07:18:55.411Z,94.47
2022-11-24T07:21:57.387Z,93.91
2022-11-24T07:24:59.715Z,91.54
2022-11-24T07:28:02.634Z,92.67
2022-11-24T07:31:05.945Z,91.38
2022-11-24T07:34:08.619Z,91.87
2022-11-24T07:37:11.094Z,91.21
2022-11-24T07:40:13.071Z,89.23
2022-11-24T07:43:19.981Z,90.42
2022-11-24T07:46:24.261Z,88.32
2022-11-24T07:49:26.859Z,89.11
2022-11-24T07:52:28.916Z,88.52
2022-11-24T07:55:31.125Z,89.29
2022-11-24T07:58:34.673Z,87.94
2022-11-24T08:01:37.199Z,88.46
2022-11-24T08:04:39.637Z,88.15
2022-11-24T08:07:41.604Z,88.10
2022-11-24T08:10:43.912Z,88.82
2022-11-24T08:13:45.994Z,85.78
2022-11-24T08:16:48.298Z,86.99
2022-11-24T08:19:50.372Z,86.65
2022-11-24T08:22:56.447Z,86.25
2022-11-24T08:26:03.405Z,85.67
2022-11-24T08:29:05.914Z,85.10
2022-11-24T08:32:08.362Z,85.07
2022-11-24T08:35:15.136Z,83.40
2022-11-24T08:38:17.364Z,85.64
2022-11-24T08:41:19.498Z,85.86
2022-11-24T08:44:21.514Z,84.87
2022-11-24T08:47:23.795Z,84.63
2022-11-24T08:50:26.120Z,83.56
2022-11-24T08:53:30.629Z,85.01
2022-11-24T08:56:33.718Z,85.57
2022-11-24T08:59:36.096Z,84.36
2022-11-24T09:02:38.825Z,82.88
2022-11-24T09:05:51.676Z,82.85
2022-11-24T09:08:55.806Z,82.76
2022-11-24T09:11:58.269Z,83.65
2022-11-24T09:15:00.221Z,83.70
2022-11-24T09:18:02.515Z,83.13
2022-11-24T09:21:08.166Z,82.71
2022-11-24T09:24:10.752Z,83.50
2022-11-24T09:27:12.779Z,82.26
2022-11-24T09:30:16.871Z,81.96
2022-11-24T09:33:18.885Z,83.10
2022-11-24T09:36:21.561Z,83.25
2022-11-24T09:39:23.492Z,82.12
2022-11-24T09:42:53.434Z,80.75
2022-11-24T09:46:06.124Z,79.28
2022-11-24T09:49:12.675Z,78.42
2022-11-24T09:52:18.504Z,76.60
2022-11-24T09:55:40.773Z,76.00
2022-11-24T09:58:50.432Z,76.88
2022-11-24T10:01:54.315Z,75.99
2022-11-24T10:04:57.724Z,78.10
2022-11-24T10:07:59.716Z,76.69
2022-11-24T10:11:05.403Z,77.69
2022-11-24T10:14:07.565Z,79.28
2022-11-24T10:17:29.028Z,78.88
2022-11-24T10:20:31.113Z,80.59
2022-11-24T10:23:53.800Z,81.58
2022-11-24T10:27:04.374Z,81.16
2022-11-24T10:30:32.872Z,80.77
2022-11-24T10:33:35.270Z,81.67
2022-11-24T10:36:47.047Z,80.71
2022-11-24T10:40:01.220Z,81.91
2022-11-24T10:43:05.332Z,81.32
2022-11-24T10:46:23.073Z,82.70
2022-11-24T10:49:28.211Z,81.25
2022-11-24T10:52:32.626Z,82.53
2022-11-24T10:55:53.604Z,82.59
2022-11-24T10:58:57.608Z,79.97
2022-11-24T11:02:00.553Z,80.13
2022-11-24T11:05:21.640Z,78.97
2022-11-24T11:08:23.866Z,78.30
2022-11-24T11:11:29.836Z,77.93
2022-11-24T11:14:33.885Z,76.60
2022-11-24T11:17:38.011Z,78.47
2022-11-24T11:20:40.385Z,77.31
2022-11-24T11:23:44.233Z,75.39
2022-11-24T11:26:46.476Z,74.86
2022-11-24T11:36:46.245Z,74.80
2022-11-24T11:39:54.004Z,73.23
2022-11-24T11:43:14.900Z,72.38
2022-11-24T11:46:17.540Z,71.73
2022-11-24T11:49:19.789Z,72.50
2022-11-24T11:52:25.227Z,72.53
2022-11-24T11:55:46.645Z,72.29
2022-11-24T11:58:56.160Z,72.87
2022-11-24T12:01:58.128Z,69.50
2022-11-24T12:05:02.029Z,71.48
2022-11-24T12:08:21.012Z,70.49
2022-11-24T12:11:29.377Z,71.67
2022-11-24T12:14:39.357Z,68.01
2022-11-24T12:17:44.931Z,67.57
2022-11-24T12:20:59.253Z,67.66
2022-11-24T12:24:21.112Z,68.52
2022-11-24T12:27:26.582Z,69.65
2022-11-24T12:30:35.404Z,70.15
2022-11-24T12:33:55.340Z,70.78
2022-11-24T12:37:08.329Z,71.06
2022-11-24T12:40:16.546Z,71.90
2022-11-24T12:43:34.410Z,74.29
2022-11-24T12:46:56.938Z,76.18
2022-11-24T12:50:08.051Z,75.58
2022-11-24T12:53:13.273Z,76.29
2022-11-24T12:56:17.409Z,77.89
2022-11-24T12:59:34.787Z,77.64
2022-11-24T13:02:56.848Z,77.90
2022-11-24T13:06:13.719Z,78.02
2022-11-24T13:09:18.618Z,77.96
2022-11-24T13:12:21.644Z,79.27
2022-11-24T13:15:44.730Z,79.63
2022-11-24T13:18:52.513Z,80.10
2022-11-24T13:22:07.399Z,80.04
2022-11-24T13:25:24.789Z,80.77
2022-11-24T13:29:01.842Z,80.96
2022-11-24T13:32:08.276Z,81.31
2022-11-24T13:35:15.075Z,80.61
2022-11-24T13:38:35.451Z,79.99
2022-11-24T13:41:57.977Z,78.89
2022-11-24T13:45:04.521Z,79.73
2022-11-24T13:48:19.003Z,80.08
2022-11-24T13:51:25.017Z,80.33
2022-11-24T13:54:28.490Z,81.04
2022-11-24T13:57:39.170Z,81.53
2022-11-24T14:01:00.315Z,81.34
2022-11-24T14:04:30.142Z,81.13
2022-11-24T14:07:34.181Z,80.95
2022-11-24T14:10:37.798Z,80.91
2022-11-24T14:13:39.828Z,81.44
2022-11-24T14:16:42.397Z,81.42
2022-11-24T14:19:45.969Z,81.66
2022-11-24T14:22:48.256Z,81.93
2022-11-24T14:25:51.190Z,82.46
2022-11-24T14:28:54.210Z,83.64
2022-11-24T14:32:00.201Z,84.77
2022-11-24T14:35:02.441Z,85.88
2022-11-24T14:38:05.436Z,86.15
2022-11-24T14:41:23.217Z,86.75
2022-11-24T14:44:26.183Z,86.40
2022-11-24T14:47:31.748Z,86.79
2022-11-24T14:50:34.377Z,87.23
2022-11-24T14:53:36.721Z,86.59
2022-11-24T14:56:39.525Z,86.36
2022-11-24T14:59:41.756Z,86.71
2022-11-24T15:03:06.948Z,87.15
2022-11-24T15:06:15.623Z,86.96
2022-11-24T15:09:19.977Z,87.92
2022-11-24T15:12:28.772Z,88.02
2022-11-24T15:15:36.232Z,87.87
2022-11-24T15:18:43.115Z,88.23
2022-11-24T15:21:45.094Z,88.40
2022-11-24T15:24:53.358Z,88.22
2022-11-24T15:27:55.243Z,88.12
2022-11-24T15:31:05.415Z,88.64
2022-11-24T15:34:07.628Z,88.42
2022-11-24T15:37:09.840Z,87.73
2022-11-24T15:40:12.073Z,88.35
2022-11-24T15:43:23.399Z,89.83
2022-11-24T15:46:29.168Z,91.06
2022-11-24T15:49:31.395Z,91.86
2022-11-24T15:52:34.648Z,92.62
2022-11-24T15:55:37.022Z,93.56
2022-11-24T15:58:38.906Z,93.13
2022-11-24T16:01:42.633Z,93.11
2022-11-24T16:04:45.711Z,92.67
2022-11-24T16:07:50.043Z,93.64
2022-11-24T16:10:52.593Z,93.01
2022-11-24T16:13:54.749Z,94.27
2022-11-24T16:16:57.125Z,93.55
2022-11-24T16:20:00.731Z,92.86
2022-11-24T16:23:04.850Z,93.89
2022-11-24T16:26:06.981Z,93.93
2022-11-24T16:29:11.583Z,94.29
2022-11-24T16:32:13.526Z,94.51
2022-11-24T16:35:16.003Z,94.88
2022-11-24T16:38:20.729Z,95.39
2022-11-24T16:41:22.940Z,96.91
2022-11-24T16:44:24.965Z,97.61
2022-11-24T16:47:27.333Z,96.50
2022-11-24T16:50:29.261Z,96.26
2022-11-24T16:53:31.505Z,96.22
2022-11-24T16:56:33.476Z,95.02
2022-11-24T16:59:35.682Z,94.88
2022-11-24T17:02:38.700Z,95.16
2022-11-24T17:05:41.059Z,96.41
2022-11-24T17:08:43.384Z,96.23
2022-11-24T17:11:45.628Z,95.78
2022-11-24T17:15:09.307Z,96.03
2022-11-24T17:18:24.049Z,97.24
2022-11-24T17:21:28.152Z,97.48
2022-11-24T17:24:32.460Z,96.86
2022-11-24T17:27:34.533Z,98.21
2022-11-24T17:30:38.178Z,97.33
2022-11-24T17:33:40.100Z,99.75
2022-11-24T17:36:44.713Z,100.00
2022-11-24T17:40:05.718Z,100.00
2022-11-24T17:43:09.000Z,98.26
2022-11-24T17:46:11.007Z,98.89
2022-11-24T17:49:14.373Z,99.90
2022-11-24T17:52:17.885Z,99.11
2022-11-24T17:55:20.085Z,100.00
2022-11-24T17:58:21.966Z,100.00
2022-11-24T18:01:25.910Z,100.00
2022-11-24T18:04:28.324Z,100.00
2022-11-24T18:07:30.340Z,100.00
2022-11-24T18:10:33.041Z,100.00
2022-11-24T18:13:55.635Z,98.23
2022-11-24T18:16:57.287Z,97.42
2022-11-24T18:19:59.248Z,95.70
2022-11-24T18:23:06.133Z,95.86
2022-11-24T18:26:11.053Z,95.37
2022-11-24T18:29:13.351Z,95.40
2022-11-24T18:32:15.510Z,95.73
2022-11-24T18:35:17.929Z,96.29
2022-11-24T18:38:19.965Z,96.45
2022-11-24T18:41:22.441Z,95.71
2022-11-24T18:44:25.858Z,96.46
2022-11-24T18:47:28.093Z,96.40
2022-11-24T18:50:30.037Z,96.55
2022-11-24T18:53:32.266Z,94.19
2022-11-24T18:56:34.294Z,93.40
2022-11-24T18:59:37.015Z,92.03
2022-11-24T19:02:39.099Z,92.39
2022-11-24T19:05:41.801Z,91.99
2022-11-24T19:08:43.899Z,92.75
2022-11-24T19:11:46.701Z,93.01
2022-11-24T19:14:48.688Z,94.14
2022-11-24T19:17:51.835Z,94.92
2022-11-24T19:20:55.781Z,95.31
2022-11-24T19:24:04.166Z,95.32
2022-11-24T19:27:07.318Z,95.25
2022-11-24T19:30:09.775Z,95.65
2022-11-24T19:33:11.924Z,97.58
2022-11-24T19:36:15.906Z,98.04
2022-11-24T19:39:17.897Z,98.29
2022-11-24T19:42:22.392Z,98.63
2022-11-24T19:45:24.463Z,99.00
2022-11-24T19:48:29.924Z,99.05
2022-11-24T19:51:33.791Z,97.89
2022-11-24T19:54:36.294Z,97.64
2022-11-24T19:57:38.458Z,96.41
2022-11-24T20:00:40.725Z,95.84
2022-11-24T20:03:44.504Z,96.42
2022-11-24T20:06:53.278Z,96.31
2022-11-24T20:09:55.553Z,95.95
2022-11-24T20:12:57.590Z,95.46
2022-11-24T20:16:03.852Z,94.31
2022-11-24T20:19:07.573Z,94.20
2022-11-24T20:22:10.028Z,94.09
2022-11-24T20:25:11.971Z,94.17
2022-11-24T20:28:14.569Z,94.34
2022-11-24T20:31:21.268Z,93.60
2022-11-24T20:34:24.182Z,93.88
2022-11-24T20:37:28.437Z,93.28
2022-11-24T20:40:30.691Z,93.88
2022-11-24T20:43:33.120Z,94.30
2022-11-24T20:46:38.773Z,94.03
2022-11-24T20:49:40.777Z,94.27
2022-11-24T20:52:43.107Z,93.78
2022-11-24T20:55:45.048Z,95.08
2022-11-24T20:58:47.496Z,93.85
2022-11-24T21:01:50.501Z,93.64
2022-11-24T21:04:53.161Z,93.37
2022-11-24T21:07:55.251Z,92.75
2022-11-24T21:10:58.697Z,93.44
2022-11-24T21:14:01.483Z,93.63
2022-11-24T21:17:03.676Z,93.34
2022-11-24T21:20:06.151Z,93.22
2022-11-24T21:23:08.460Z,92.61
2022-11-24T21:26:16.295Z,92.28
2022-11-24T21:29:22.245Z,91.34
2022-11-24T21:32:25.091Z,91.40
2022-11-24T21:35:27.537Z,91.29
2022-11-24T21:38:30.009Z,91.94
2022-11-24T21:41:32.897Z,92.85
2022-11-24T21:44:35.020Z,93.50
2022-11-24T21:47:38.141Z,94.60
2022-11-24T21:50:40.050Z,94.79
2022-11-24T21:53:43.289Z,95.33
2022-11-24T21:56:46.688Z,95.90
2022-11-24T21:59:49.106Z,94.89
2022-11-24T22:02:51.065Z,96.11
2022-11-24T22:05:54.293Z,96.22
2022-11-24T22:08:56.230Z,96.83
2022-11-24T22:11:58.448Z,97.79
2022-11-24T22:15:00.415Z,98.51
2022-11-24T22:18:02.635Z,99.12
2022-11-24T22:21:05.304Z,99.84
2022-11-24T22:24:07.803Z,99.17
2022-11-24T22:27:09.879Z,98.18
2022-11-24T22:30:12.230Z,96.97
2022-11-24T22:33:14.218Z,96.68
2022-11-24T22:36:18.665Z,96.52
2022-11-24T22:39:20.620Z,95.77
2022-11-24T22:42:22.881Z,96.95
2022-11-24T22:45:24.841Z,97.37
2022-11-24T22:48:27.151Z,97.48
2022-11-24T22:51:33.782Z,98.72
2022-11-24T22:54:38.122Z,99.52
2022-11-24T22:57:41.444Z,98.54
2022-11-24T23:00:45.089Z,100.00
2022-11-24T23:03:47.514Z,100.00
2022-11-24T23:06:49.770Z,100.00
2022-11-24T23:09:51.728Z,100.00
2022-11-24T23:12:54.871Z,100.00
2022-11-24T23:16:04.484Z,100.00
2022-11-24T23:19:07.184Z,100.00
2022-11-24T23:22:09.239Z,100.00
2022-11-24T23:25:11.469Z,100.00
2022-11-24T23:28:13.418Z,100.00
2022-11-24T23:31:16.685Z,100.00
2022-11-24T23:34:18.920Z,100.00
2022-11-24T23:37:26.464Z,100.00
2022-11-24T23:40:36.638Z,100.00
2022-11-24T23:43:40.066Z,100.00
2022-11-24T23:46:41.984Z,100.00
2022-11-24T23:49:44.249Z,100.00
2022-11-24T23:52:46.165Z,100.00
2022-11-24T23:55:57.649Z,100.00
2022-11-24T23:59:00.266Z,100.00
